Latest Coastal Weather Observations for Gabo Island (VIC)

IDN60701

Issued at 4:21 am EST Friday 23 June 2017 (issued every 10 minutes, with the page automatically refreshed every 10 minutes)

About coastal observations | Map of coastal stations | Coastal observations for NSW | Marine services | Other Formats
Station Details ID: 084016 Name: GABO ISLAND LIGHTHOUSE Lat: -37.57 Lon: 149.92 Height: 15.2 m
Data from the previous 72 hours. | See also: Recent months at Gabo Island (VIC)
Date/Time
EST
Temp
°C
Wind Pressure Rain since
9am
mm
Weather Cloud Vis
km
Sea
Height
m
Swell
Dir  Spd
kts
Gust
kts
hPa Trend Height
m
Period
s
Dir
23/04:00am 9.4 WNW 5 6 1019.5 - 0.0 - - - - - - -
23/03:30am 9.9 NNW 4 6 1019.9 - 0.0 - - - - - - -
23/03:00am 9.3 NW 8 9 1020.5 - 0.0 Fine Mostly clear 35 1 1.0 - -
23/02:30am 9.1 NW 8 9 1020.8 - 0.0 - - - - - - -
23/02:00am 9.9 WNW 7 8 1020.9 - 0.0 - - - - - - -
23/01:30am 10.0 WNW 6 8 1020.9 - 0.0 - - - - - - -
23/01:00am 10.5 WNW 8 9 1021.3 - 0.0 - - - - - - -
23/12:30am 10.5 WNW 7 9 1021.5 - 0.0 - - - - - - -
23/12:00am 10.4 NNW 6 7 1022.1 - 0.0 - - - - - - -
 
Date/Time
EST
Temp
°C
Wind Pressure Rain since
9am
mm
Weather Cloud Vis
km
Sea
Height
m
Swell
Dir  Spd
kts
Gust
kts
hPa Trend Height
m
Period
s
Dir
22/11:30pm 11.4 NW 6 8 1022.6 - 0.0 - - - - - - -
22/11:00pm 10.5 NNW 7 9 1023.1 - 0.0 - - - - - - -
22/10:30pm 10.1 NW 6 7 1023.1 - 0.0 - - - - - - -
22/10:00pm 11.2 WNW 6 8 1023.4 - 0.0 - - - - - - -
22/09:30pm 11.7 W 8 9 1023.6 - 0.0 - - - - - - -
22/09:00pm 11.8 WNW 7 9 1023.9 - 0.0 Fine Mostly cloudy 35 1 1.0 - -
22/08:30pm 12.1 WNW 7 8 1024.2 - 0.0 - - - - - - -
22/08:00pm 11.9 NW 6 7 1024.3 - 0.0 - - - - - - -
22/07:30pm 12.0 NW 5 8 1024.4 - 0.0 - - - - - - -
22/07:00pm 12.7 WSW 11 15 1024.4 - 0.0 - - - - - - -
22/06:30pm 13.1 WSW 17 21 1024.5 - 0.0 - - - - - - -
22/06:00pm 13.4 W 11 14 1024.4 - 0.0 - - - - - - -
22/05:30pm 12.5 N 6 7 1024.0 - 0.0 - - - - - - -
22/05:00pm 12.3 N 6 7 1023.7 - 0.0 - - - - - - -
22/04:30pm 13.7 NNE 6 7 1023.8 - 0.0 - - - - - - -
22/04:00pm 14.1 NE 6 7 1024.0 - 0.0 - - - - - - -
22/03:30pm 14.4 ENE 5 6 1024.2 - 0.0 - - - - - - -
22/03:00pm 14.7 SE 3 5 1024.4 - 0.0 Fine Mostly cloudy 40 <0.5 1.0 - -
22/02:30pm 15.4 SSE 4 5 1024.7 - 0.0 - - - - - - -
22/02:00pm 14.9 SSW 4 5 1025.0 - 0.0 - - - - - - -
22/01:30pm 15.0 S 4 5 1025.0 - 0.0 - - - - - - -
22/01:00pm 15.1 S 4 5 1025.4 - 0.0 - - - - - - -
22/12:30pm 15.2 ESE 2 4 1025.6 - 0.0 - - - - - - -
22/12:00pm 14.9 WNW 4 6 1026.1 - 0.0 - - - - - - -
22/11:30am 14.4 W 5 8 1026.6 - 0.0 - - - - - - -
22/11:00am 14.3 WNW 7 8 1027.2 - 0.0 - - - - - - -
22/10:30am 14.0 WNW 7 8 1027.5 - 0.0 - - - - - - -
22/10:00am 13.4 NW 8 11 1027.8 - 0.0 - - - - - - -
22/09:30am 12.4 WNW 8 11 1028.0 - 0.0 - - - - - - -
22/09:00am 11.5 NW 9 12 1028.0 - 0.2 Fine Mostly clear 40 1 1.0 - -
22/08:30am 10.9 WNW 10 12 1028.0 - 0.2 - - - - - - -
22/08:00am 10.5 NW 9 11 1028.1 - 0.2 - - - - - - -
22/07:30am 10.1 NW 9 11 1027.9 - 0.2 - - - - - - -
22/07:00am 10.0 NW 9 11 1027.8 - 0.2 - - - - - - -
22/06:30am 9.9 NW 9 11 1027.8 - 0.2 - - - - - - -
22/06:00am 10.0 NW 9 11 1027.6 - 0.2 - - - - - - -
22/05:30am 10.0 WNW 9 11 1027.5 - 0.2 - - - - - - -
22/05:00am 10.9 WNW 6 7 1027.4 - 0.2 - - - - - - -
22/04:30am 11.0 WNW 8 9 1027.6 - 0.2 - - - - - - -
22/04:00am 10.9 WNW 8 11 1027.6 - 0.2 - - - - - - -
22/03:30am 11.0 W 7 9 1027.7 - 0.2 - - - - - - -
22/03:00am 10.7 WNW 7 9 1027.9 - 0.2 Fine Partly cloudy 25 1 1.0 - -
22/02:30am 10.9 WNW 8 11 1028.2 - 0.2 - - - - - - -
22/02:00am 10.9 WNW 8 10 1028.2 - 0.2 - - - - - - -
22/01:30am 11.3 WNW 10 13 1028.3 - 0.2 - - - - - - -
22/01:00am 12.3 W 10 13 1028.3 - 0.2 - - - - - - -
22/12:30am 12.3 W 11 14 1028.6 - 0.2 - - - - - - -
22/12:00am 11.9 W 13 17 1029.0 - 0.2 - - - - - - -
 
Date/Time
EST
Temp
°C
Wind Pressure Rain since
9am
mm
Weather Cloud Vis
km
Sea
Height
m
Swell
Dir  Spd
kts
Gust
kts
hPa Trend Height
m
Period
s
Dir
21/11:30pm 13.0 WSW 12 16 1029.0 - 0.2 - - - - - - -
21/11:00pm 12.7 W 14 17 1028.9 - 0.2 - - - - - - -
21/10:30pm 12.4 W 10 13 1028.9 - 0.2 - - - - - - -
21/10:00pm 12.3 W 12 16 1028.8 - 0.2 - - - - - - -
21/09:30pm 12.5 W 12 18 1028.9 - 0.2 - - - - - - -
21/09:00pm 12.4 W 12 14 1028.8 - 0.2 Fine Cloudy 25 1 1.0 - -
21/08:30pm 12.3 W 13 16 1029.0 - 0.2 - - - - - - -
21/08:00pm 12.2 W 12 15 1028.9 - 0.2 - - - - - - -
21/07:30pm 12.8 W 13 16 1028.7 - 0.2 - - - - - - -
21/07:00pm 12.5 WSW 13 16 1028.5 - 0.2 - - - - - - -
21/06:30pm 12.5 WSW 15 19 1028.6 - 0.2 - - - - - - -
21/06:00pm 12.9 SW 15 21 1028.2 - 0.2 - - - - - - -
21/05:30pm 12.2 WSW 16 19 1027.9 - 0.2 - - - - - - -
21/05:00pm 12.2 WSW 19 24 1027.5 - 0.2 - - - - - - -
21/04:30pm 13.5 WSW 15 19 1027.1 - 0.0 - - - - - - -
21/04:00pm 14.0 WSW 17 22 1026.8 - 0.0 - - - - - - -
21/03:30pm 14.2 WSW 20 25 1026.5 - 0.0 - - - - - - -
21/03:00pm 14.0 WSW 21 24 1026.4 - 0.0 Distant precip. Mostly cloudy 30 1 1.0 - -
21/02:30pm 14.4 WSW 17 21 1026.0 - 0.0 - - - - - - -
21/02:00pm 14.5 WSW 19 23 1025.7 - 0.0 - - - - - - -
21/01:30pm 13.8 WSW 20 26 1026.0 - 0.0 - - - - - - -
21/01:00pm 13.6 SW 27 31 1026.0 - 0.0 - - - - - - -
21/12:56pm 14.0 SW 27 29 1025.9 - 0.0 - - - - - - -
21/12:53pm 14.6 WSW 16 27 1026.0 - 0.0 - - - - - - -
21/12:30pm 15.2 W 16 21 1026.0 - 0.0 - - - - - - -
21/12:00pm 14.8 WSW 19 23 1026.3 - 0.0 - - - - - - -
21/11:30am 14.4 W 17 22 1026.4 - 0.0 - - - - - - -
21/11:00am 14.2 W 17 21 1026.7 - 0.0 - - - - - - -
21/10:30am 13.8 WSW 17 21 1027.0 - 0.0 - - - - - - -
21/10:00am 13.1 W 15 19 1027.0 - 0.0 - - - - - - -
21/09:30am 13.1 W 15 19 1026.9 - 0.0 - - - - - - -
21/09:00am 11.9 W 13 15 1026.6 - 0.0 Fine Mostly cloudy 40 1 2.0 - -
21/08:30am 11.6 W 11 14 1026.3 - 0.0 - - - - - - -
21/08:00am 10.9 W 9 11 1026.0 - 0.0 - - - - - - -
21/07:30am 9.9 WNW 8 10 1025.7 - 0.0 - - - - - - -
21/07:00am 10.0 W 9 11 1025.4 - 0.0 - - - - - - -
21/06:30am 10.1 WNW 8 11 1025.1 - 0.0 - - - - - - -
21/06:00am 9.9 WNW 9 11 1024.6 - 0.0 - - - - - - -
21/05:30am 10.0 W 9 12 1024.4 - 0.0 - - - - - - -
21/05:00am 10.4 WNW 8 11 1023.9 - 0.0 - - - - - - -
21/04:30am 10.3 WNW 9 13 1023.7 - 0.0 - - - - - - -
21/04:00am 10.7 WNW 9 12 1023.8 - 0.0 - - - - - - -
21/03:30am 10.8 NW 8 11 1023.8 - 0.0 - - - - - - -
21/03:00am 10.8 WNW 7 9 1023.7 - 0.0 - - - - - - -
21/02:30am 10.6 NW 6 8 1023.6 - 0.0 - - - - - - -
21/02:00am 11.0 WNW 7 8 1023.6 - 0.0 - - - - - - -
21/01:30am 10.9 WNW 8 9 1023.6 - 0.0 - - - - - - -
21/01:00am 10.8 NW 7 8 1023.6 - 0.0 - - - - - - -
21/12:30am 10.9 NW 7 9 1023.7 - 0.0 - - - - - - -
21/12:00am 11.2 NW 7 9 1024.0 - 0.0 - - - - - - -
 
Date/Time
EST
Temp
°C
Wind Pressure Rain since
9am
mm
Weather Cloud Vis
km
Sea
Height
m
Swell
Dir  Spd
kts
Gust
kts
hPa Trend Height
m
Period
s
Dir
20/11:30pm 11.1 NW 7 8 1024.0 - 0.0 - - - - - - -
20/11:00pm 11.3 NW 7 8 1024.3 - 0.0 - - - - - - -
20/10:30pm 11.2 WNW 7 9 1024.3 - 0.0 - - - - - - -
20/10:00pm 11.3 WNW 8 10 1024.5 - 0.0 - - - - - - -
20/09:30pm 11.6 NW 8 11 1024.8 - 0.0 - - - - - - -
20/09:00pm 12.0 NW 7 8 1024.8 - 0.0 Fine Clear 50 <0.5 2.0 - -
20/08:30pm 12.1 WNW 7 8 1024.9 - 0.0 - - - - - - -
20/08:00pm 13.8 WSW 9 11 1024.7 - 0.0 - - - - - - -
20/07:30pm 13.1 WSW 8 9 1024.4 - 0.0 - - - - - - -
20/07:00pm 12.4 W 3 5 1024.0 - 0.0 - - - - - - -
20/06:30pm 12.8 N 8 10 1023.6 - 0.0 - - - - - - -
20/06:00pm 13.1 N 8 10 1023.3 - 0.0 - - - - - - -
20/05:30pm 13.2 N 8 11 1023.5 - 0.0 - - - - - - -
20/05:00pm 14.0 N 10 12 1023.4 - 0.0 - - - - - - -
20/04:30pm 14.9 N 11 13 1023.4 - 0.0 - - - - - - -
20/04:00pm 15.6 NNE 12 16 1023.4 - 0.0 - - - - - - -
20/03:30pm 16.0 NNE 14 17 1023.5 - 0.0 - - - - - - -
20/03:00pm 16.3 NNE 15 19 1023.5 - 0.0 Fine Mostly clear 50 1 2.0 - -
20/02:30pm 16.4 NNE 16 19 1023.5 - 0.0 - - - - - - -
20/02:00pm 16.5 NNE 17 20 1023.6 - 0.0 - - - - - - -
20/01:30pm 16.7 NNE 16 20 1024.0 - 0.0 - - - - - - -
20/01:00pm 16.7 NNE 14 17 1024.5 - 0.0 - - - - - - -
20/12:30pm 16.9 NNE 14 17 1025.2 - 0.0 - - - - - - -
20/12:00pm 16.5 NNE 13 19 1025.7 - 0.0 - - - - - - -
20/11:30am 16.6 NNE 11 16 1026.3 - 0.0 - - - - - - -
20/11:00am 16.1 NNE 9 11 1027.1 - 0.0 - - - - - - -
20/10:30am 15.3 NNE 5 7 1027.6 - 0.0 - - - - - - -
20/10:00am 13.9 WNW 6 7 1028.0 - 0.0 - - - - - - -
20/09:30am 12.8 WNW 6 8 1028.1 - 0.0 - - - - - - -
20/09:00am 12.1 WNW 6 8 1028.1 - 0.0 Fine Mostly clear 40 <0.5 2.0 - -
20/08:30am 11.6 WNW 6 7 1028.2 - 0.0 - - - - - - -
20/08:00am 10.7 WNW 7 8 1028.4 - 0.0 - - - - - - -
20/07:30am 10.9 NW 7 8 1028.3 - 0.0 - - - - - - -
20/07:00am 11.0 WNW 7 7 1028.3 - 0.0 - - - - - - -
20/06:30am 10.9 WNW 8 8 1028.3 - 0.0 - - - - - - -
20/06:00am 10.9 WNW 8 9 1028.0 - 0.0 - - - - - - -
20/05:30am 10.7 WNW 8 9 1027.9 - 0.0 - - - - - - -
20/05:00am 10.9 WNW 8 9 1027.9 - 0.0 - - - - - - -
20/04:30am 10.9 WNW 7 8 1028.0 - 0.0 - - - - - - -

Other Formats:

Comma delimited format used in spreadsheet applications
http://www.bom.gov.au/fwo/IDN60701/IDN60701.94933.axf

JavaScript Object Notation format (JSON) in row-major order
http://www.bom.gov.au/fwo/IDN60701/IDN60701.94933.json